Time;durP1;ratioP1;P1;durP2;ratioP2;P2;SDS_P1;SDS_P2;PMS_P1;PMS_P2;Temp;Humidity;BMP_temperature;BMP_pressure;BME280_temperature;BME280_humidity;BME280_pressure;Samples;Min_cycle;Max_cycle;Signal;HPM_P1;HPM_P2
2020/12/08 00:01:20;;;;;;;;;;;;;;;2.92;100.00;99938.16;5094418;28;19924;-68
2020/12/08 00:03:45;;;;;;;;;;;;;;;2.92;100.00;99940.84;5094813;28;19924;-68
2020/12/08 00:06:14;;;;;;;;;;;;;;;2.95;100.00;99937.97;5094434;28;19931;-68
2020/12/08 00:08:39;;;;;;;;;;;;;;;2.95;100.00;99928.13;5094540;28;20337;-68
2020/12/08 00:11:05;;;;;;;;;;;;;;;2.98;100.00;99924.34;5093917;28;19963;-68
2020/12/08 00:13:31;;;;;;;;;;;;;;;2.98;100.00;99927.91;5094405;28;19939;-69
2020/12/08 00:15:57;;;;;;;;;;;;;;;2.98;100.00;99921.66;5094254;28;19924;-69
2020/12/08 00:18:22;;;;;;;;;;;;;;;2.99;100.00;99920.72;5093804;28;19931;-68
2020/12/08 00:20:48;;;;;;;;;;;;;;;3.01;100.00;99918.81;5094114;28;19928;-68
2020/12/08 00:23:15;;;;;;;;;;;;;;;3.07;100.00;99922.94;5094189;28;19931;-68
2020/12/08 00:25:41;;;;;;;;;;;;;;;3.10;100.00;99926.28;5094366;28;19990;-69
2020/12/08 00:28:07;;;;;;;;;;;;;;;3.13;100.00;99935.97;5093863;28;19964;-68
2020/12/08 00:30:33;;;;;;;;;;;;;;;3.16;100.00;99931.25;5093926;28;19930;-68
2020/12/08 00:32:59;;;;;;;;;;;;;;;3.19;100.00;99932.88;5093296;28;19928;-68
2020/12/08 00:35:24;;;;;;;;;;;;;;;3.25;100.00;99923.59;5093936;28;19928;-68
2020/12/08 00:37:50;;;;;;;;;;;;;;;3.32;100.00;99930.28;5093335;28;19928;-69
2020/12/08 00:40:17;;;;;;;;;;;;;;;3.37;100.00;99933.53;5093850;28;19924;-68
2020/12/08 00:42:43;;;;;;;;;;;;;;;3.43;100.00;99927.75;5093001;28;19924;-68
2020/12/08 00:45:11;;;;;;;;;;;;;;;3.47;100.00;99921.25;5093476;28;19928;-69
2020/12/08 00:47:37;;;;;;;;;;;;;;;3.50;100.00;99921.06;5075133;28;20005;-68
2020/12/08 00:50:03;;;;;;;;;;;;;;;3.51;100.00;99917.44;5075478;28;20361;-68
2020/12/08 00:52:29;;;;;;;;;;;;;;;3.52;100.00;99921.81;5075350;28;20397;-68
2020/12/08 00:54:55;;;;;;;;;;;;;;;3.53;100.00;99928.06;5075538;28;20067;-68
2020/12/08 00:57:22;;;;;;;;;;;;;;;3.49;100.00;99926.53;5075021;28;20377;-68
2020/12/08 00:59:49;;;;;;;;;;;;;;;3.45;100.00;99917.81;5075347;28;19928;-68
2020/12/08 01:02:15;;;;;;;;;;;;;;;3.44;100.00;99910.72;5093191;28;19924;-68
2020/12/08 01:04:41;;;;;;;;;;;;;;;3.43;100.00;99908.13;5075486;28;19924;-68
2020/12/08 01:07:07;;;;;;;;;;;;;;;3.41;100.00;99916.28;5093113;28;19977;-68
2020/12/08 01:09:33;;;;;;;;;;;;;;;3.36;100.00;99910.34;5075149;28;19924;-68
2020/12/08 01:11:59;;;;;;;;;;;;;;;3.32;100.00;99907.00;5075053;28;19924;-68
2020/12/08 01:14:32;;;;;;;;;;;;;;;3.28;100.00;99916.19;5075172;28;19924;-69
2020/12/08 01:16:58;;;;;;;;;;;;;;;3.26;100.00;99918.13;5092933;28;20032;-68
2020/12/08 01:19:24;;;;;;;;;;;;;;;3.24;100.00;99911.16;5074982;28;20015;-68
2020/12/08 01:21:50;;;;;;;;;;;;;;;3.25;100.00;99903.00;5074832;28;19924;-68
2020/12/08 01:24:16;;;;;;;;;;;;;;;3.24;100.00;99900.41;5074847;28;19924;-68
2020/12/08 01:26:42;;;;;;;;;;;;;;;3.25;100.00;99897.63;5074640;28;19931;-68
2020/12/08 01:29:08;;;;;;;;;;;;;;;3.25;100.00;99902.16;5074727;28;19924;-68
2020/12/08 01:31:41;;;;;;;;;;;;;;;3.21;100.00;99895.22;5074724;28;19923;-68
2020/12/08 01:34:12;;;;;;;;;;;;;;;3.19;100.00;99895.31;5074510;28;19932;-69
2020/12/08 01:36:38;;;;;;;;;;;;;;;3.17;100.00;99895.44;5074502;28;19925;-69
2020/12/08 01:39:05;;;;;;;;;;;;;;;3.13;100.00;99893.91;5092649;28;20011;-69
2020/12/08 01:41:31;;;;;;;;;;;;;;;3.11;100.00;99884.22;5074422;28;19924;-69
2020/12/08 01:43:57;;;;;;;;;;;;;;;3.10;100.00;99899.47;5091952;28;19928;-68
2020/12/08 01:46:26;;;;;;;;;;;;;;;3.12;100.00;99902.91;5074247;28;19978;-68
2020/12/08 01:48:54;;;;;;;;;;;;;;;3.13;100.00;99901.09;5074253;28;19928;-68
2020/12/08 01:51:22;;;;;;;;;;;;;;;3.17;100.00;99910.66;5073965;28;19964;-68
2020/12/08 01:53:49;;;;;;;;;;;;;;;3.16;100.00;99903.56;5074352;28;19952;-68
2020/12/08 01:56:15;;;;;;;;;;;;;;;3.13;100.00;99901.09;5074151;28;19925;-69
2020/12/08 01:58:45;;;;;;;;;;;;;;;3.11;100.00;99895.81;5074213;28;19985;-68
2020/12/08 02:01:12;;;;;;;;;;;;;;;3.09;100.00;99897.75;5073859;28;20374;-67
2020/12/08 02:03:38;;;;;;;;;;;;;;;3.06;100.00;99897.06;5074308;28;19931;-68
2020/12/08 02:06:06;;;;;;;;;;;;;;;3.04;100.00;99896.31;5073122;28;19959;-68
2020/12/08 02:08:33;;;;;;;;;;;;;;;3.00;100.00;99885.75;5074033;28;19924;-68
2020/12/08 02:11:01;;;;;;;;;;;;;;;3.01;100.00;99897.38;5073859;28;20450;-68
2020/12/08 02:13:27;;;;;;;;;;;;;;;3.02;100.00;99888.38;5092013;28;19924;-68
2020/12/08 02:15:55;;;;;;;;;;;;;;;3.04;100.00;99899.84;5073730;28;19967;-68
2020/12/08 02:18:21;;;;;;;;;;;;;;;3.06;100.00;99899.75;5073793;28;20050;-68
2020/12/08 02:20:53;;;;;;;;;;;;;;;3.06;100.00;99892.59;5073631;28;20373;-68
2020/12/08 02:23:19;;;;;;;;;;;;;;;3.06;100.00;99903.31;5073988;28;20034;-68
2020/12/08 02:25:52;;;;;;;;;;;;;;;3.08;100.00;99900.53;5073436;28;19931;-67
2020/12/08 02:28:20;;;;;;;;;;;;;;;3.10;100.00;99904.84;5056818;28;19931;-68
2020/12/08 02:30:46;;;;;;;;;;;;;;;3.13;100.00;99906.47;5091743;28;19959;-68
2020/12/08 02:33:12;;;;;;;;;;;;;;;3.13;100.00;99915.34;5073619;28;20048;-68
2020/12/08 02:35:38;;;;;;;;;;;;;;;3.15;100.00;99917.94;5091675;28;19947;-67
2020/12/08 02:38:04;;;;;;;;;;;;;;;3.16;100.00;99915.16;5091416;28;19991;-68
2020/12/08 02:40:30;;;;;;;;;;;;;;;3.16;100.00;99912.47;5073541;28;19924;-67
2020/12/08 02:42:56;;;;;;;;;;;;;;;3.16;100.00;99915.16;5091323;28;19930;-68
2020/12/08 02:45:22;;;;;;;;;;;;;;;3.17;100.00;99922.25;5091364;28;20414;-68
2020/12/08 02:47:48;;;;;;;;;;;;;;;3.20;100.00;99913.16;5056165;28;20446;-68
2020/12/08 02:50:15;;;;;;;;;;;;;;;3.24;100.00;99908.47;5073473;28;20407;-68
2020/12/08 02:52:41;;;;;;;;;;;;;;;3.24;100.00;99912.00;5073445;28;19981;-68
2020/12/08 02:55:09;;;;;;;;;;;;;;;3.26;100.00;99914.56;5073317;28;19928;-68
2020/12/08 02:57:42;;;;;;;;;;;;;;;3.29;100.00;99906.34;5072697;28;20270;-68
2020/12/08 03:00:08;;;;;;;;;;;;;;;3.32;100.00;99914.19;5072876;28;19939;-67
2020/12/08 03:02:34;;;;;;;;;;;;;;;3.34;100.00;99905.09;5072783;28;20328;-68
2020/12/08 03:05:00;;;;;;;;;;;;;;;3.35;100.00;99901.47;5073188;28;19974;-68
2020/12/08 03:07:28;;;;;;;;;;;;;;;3.39;100.00;99906.63;5072596;28;19924;-68
2020/12/08 03:09:54;;;;;;;;;;;;;;;3.40;100.00;99906.50;5072845;28;19924;-68
2020/12/08 03:12:21;;;;;;;;;;;;;;;3.40;100.00;99901.13;5073015;28;19985;-68
2020/12/08 03:14:50;;;;;;;;;;;;;;;3.40;100.00;99898.47;5073014;28;20033;-68
2020/12/08 03:17:28;;;;;;;;;;;;;;;3.40;100.00;99901.13;5072723;28;19928;-68
2020/12/08 03:19:54;;;;;;;;;;;;;;;3.42;100.00;99898.34;5072966;28;19924;-68
2020/12/08 03:22:20;;;;;;;;;;;;;;;3.41;100.00;99900.19;5072560;28;19924;-68
2020/12/08 03:24:50;;;;;;;;;;;;;;;3.42;100.00;99896.56;5072340;28;19931;-68
2020/12/08 03:27:19;;;;;;;;;;;;;;;3.40;100.00;99898.47;5072752;28;19961;-68
2020/12/08 03:29:49;;;;;;;;;;;;;;;3.41;100.00;99892.13;5074877;28;19932;-68
2020/12/08 03:32:20;;;;;;;;;;;;;;;3.41;100.00;99892.13;5072982;28;19956;-68
2020/12/08 03:34:45;;;;;;;;;;;;;;;3.42;100.00;99898.34;5091033;28;20394;-68
2020/12/08 03:37:11;;;;;;;;;;;;;;;3.42;100.00;99891.19;5056041;28;19935;-68
2020/12/08 03:39:37;;;;;;;;;;;;;;;3.41;100.00;99897.50;5072556;28;20015;-68
2020/12/08 03:42:04;;;;;;;;;;;;;;;3.43;100.00;99895.56;5072745;28;19951;-68
2020/12/08 03:44:34;;;;;;;;;;;;;;;3.43;100.00;99900.94;5072889;28;20358;-68
2020/12/08 03:47:08;;;;;;;;;;;;;;;3.42;100.00;99899.25;5072749;28;19982;-68
2020/12/08 03:49:36;;;;;;;;;;;;;;;3.43;100.00;99906.31;5072928;28;20301;-68
2020/12/08 03:52:04;;;;;;;;;;;;;;;3.46;100.00;99903.44;5072495;28;19935;-68
2020/12/08 03:54:30;;;;;;;;;;;;;;;3.45;100.00;99904.41;5072965;28;20047;-68
2020/12/08 03:56:56;;;;;;;;;;;;;;;3.45;100.00;99904.41;5071728;28;20313;-68
2020/12/08 03:59:24;;;;;;;;;;;;;;;3.45;100.00;99904.41;5072378;28;19938;-68
2020/12/08 04:02:00;;;;;;;;;;;;;;;3.43;100.00;99894.72;5055613;28;20308;-69
2020/12/08 04:04:27;;;;;;;;;;;;;;;3.43;100.00;99903.63;5089290;28;20278;-68
2020/12/08 04:06:53;;;;;;;;;;;;;;;3.44;100.00;99908.03;5090436;28;19963;-68
2020/12/08 04:09:19;;;;;;;;;;;;;;;3.43;100.00;99900.94;5094037;28;19935;-68
2020/12/08 04:11:45;;;;;;;;;;;;;;;3.43;100.00;99902.78;5075744;28;19932;-67
2020/12/08 04:14:11;;;;;;;;;;;;;;;3.42;100.00;99909.97;5075698;28;20427;-67
2020/12/08 04:16:39;;;;;;;;;;;;;;;3.42;100.00;99909.09;5076000;28;19982;-68
2020/12/08 04:19:09;;;;;;;;;;;;;;;3.41;100.00;99910.91;5074829;28;19928;-67
2020/12/08 04:21:36;;;;;;;;;;;;;;;3.41;100.00;99910.03;5093784;28;20361;-67
2020/12/08 04:24:14;;;;;;;;;;;;;;;3.40;100.00;99917.25;5075898;28;19924;-67
2020/12/08 04:26:44;;;;;;;;;;;;;;;3.37;100.00;99917.44;5075628;28;19935;-67
2020/12/08 04:29:10;;;;;;;;;;;;;;;3.33;100.00;99910.56;5075983;28;20388;-68
2020/12/08 04:31:39;;;;;;;;;;;;;;;3.31;100.00;99912.47;5075690;28;19928;-67
2020/12/08 04:34:05;;;;;;;;;;;;;;;3.30;100.00;99913.41;5094148;28;19924;-68
2020/12/08 04:36:31;;;;;;;;;;;;;;;3.28;100.00;99910.00;5093941;28;20408;-68
2020/12/08 04:38:57;;;;;;;;;;;;;;;3.27;100.00;99905.56;5094274;28;19924;-68
2020/12/08 04:41:24;;;;;;;;;;;;;;;3.25;100.00;99907.50;5093949;28;19940;-68
2020/12/08 04:43:50;;;;;;;;;;;;;;;3.25;100.00;99907.50;5093782;28;20351;-68
2020/12/08 04:46:17;;;;;;;;;;;;;;;3.25;100.00;99907.50;5093423;28;20015;-67
2020/12/08 04:48:43;;;;;;;;;;;;;;;3.25;100.00;99913.72;5093369;28;19928;-68
2020/12/08 04:51:09;;;;;;;;;;;;;;;3.27;100.00;99916.31;5093639;28;19931;-68
2020/12/08 04:53:34;;;;;;;;;;;;;;;3.26;100.00;99909.22;5093480;28;20369;-68
2020/12/08 04:56:01;;;;;;;;;;;;;;;3.27;100.00;99910.94;5075195;28;19924;-70
2020/12/08 04:58:28;;;;;;;;;;;;;;;3.24;100.00;99903.09;5093379;28;19924;-68
2020/12/08 05:00:54;;;;;;;;;;;;;;;3.23;100.00;99907.59;5093138;28;20393;-69
2020/12/08 05:03:23;;;;;;;;;;;;;;;3.22;100.00;99905.88;5075357;28;19935;-70
2020/12/08 05:05:50;;;;;;;;;;;;;;;3.20;100.00;99910.47;5093114;28;20475;-69
2020/12/08 05:08:16;;;;;;;;;;;;;;;3.16;100.00;99917.84;5093057;28;19942;-71
2020/12/08 05:10:42;;;;;;;;;;;;;;;3.16;100.00;99925.03;5093129;28;19927;-71
2020/12/08 05:13:15;;;;;;;;;;;;;;;3.15;100.00;99920.63;5092820;28;19951;-69
2020/12/08 05:15:40;;;;;;;;;;;;;;;3.14;100.00;99918.91;5093211;28;19970;-70
2020/12/08 05:18:07;;;;;;;;;;;;;;;3.14;100.00;99918.91;5092915;28;19924;-69
2020/12/08 05:20:33;;;;;;;;;;;;;;;3.15;100.00;99923.31;5092990;28;19977;-69
2020/12/08 05:22:59;;;;;;;;;;;;;;;3.15;100.00;99921.50;5092565;28;19925;-69
2020/12/08 05:25:26;;;;;;;;;;;;;;;3.15;100.00;99918.81;5092679;28;20062;-69
2020/12/08 05:27:52;;;;;;;;;;;;;;;3.17;100.00;99922.25;5074541;28;19967;-70
2020/12/08 05:30:19;;;;;;;;;;;;;;;3.14;100.00;99921.56;5092541;28;20015;-69
2020/12/08 05:32:45;;;;;;;;;;;;;;;3.14;100.00;99922.47;5092547;28;20019;-71
2020/12/08 05:35:12;;;;;;;;;;;;;;;3.15;100.00;99921.50;5092802;28;19927;-69
2020/12/08 05:37:39;;;;;;;;;;;;;;;3.11;100.00;99917.25;5092540;28;20018;-69
2020/12/08 05:40:06;;;;;;;;;;;;;;;3.10;100.00;99920.94;5074059;28;20035;-71
2020/12/08 05:42:33;;;;;;;;;;;;;;;3.09;100.00;99919.19;5092214;28;20365;-69
2020/12/08 05:44:59;;;;;;;;;;;;;;;3.08;100.00;99922.81;5092634;28;20454;-69
2020/12/08 05:47:26;;;;;;;;;;;;;;;3.11;100.00;99927.13;5087347;28;19924;-68
2020/12/08 05:50:00;;;;;;;;;;;;;;;3.13;100.00;99926.09;5080487;28;20369;-69
2020/12/08 05:52:27;;;;;;;;;;;;;;;3.14;100.00;99927.81;5072417;28;20437;-69
2020/12/08 05:54:57;;;;;;;;;;;;;;;3.14;100.00;99930.50;5074071;28;19956;-69
2020/12/08 05:57:22;;;;;;;;;;;;;;;3.12;100.00;99927.03;5072285;28;20419;-69
2020/12/08 05:59:53;;;;;;;;;;;;;;;3.14;100.00;99938.53;5083332;28;19931;-69
2020/12/08 06:02:27;;;;;;;;;;;;;;;3.12;100.00;99937.75;5090923;28;20014;-68
2020/12/08 06:04:52;;;;;;;;;;;;;;;3.10;100.00;99930.78;5072115;28;20035;-68
2020/12/08 06:07:25;;;;;;;;;;;;;;;3.11;100.00;99932.50;5071867;28;20297;-68
2020/12/08 06:10:02;;;;;;;;;;;;;;;3.11;100.00;99940.56;5072010;28;20401;-68
2020/12/08 06:12:28;;;;;;;;;;;;;;;3.11;100.00;99943.22;5079716;28;20011;-68
2020/12/08 06:14:54;;;;;;;;;;;;;;;3.08;100.00;99941.59;5091937;28;19924;-67
2020/12/08 06:17:19;;;;;;;;;;;;;;;3.08;100.00;99957.69;5090138;28;19928;-68
2020/12/08 06:19:46;;;;;;;;;;;;;;;3.08;100.00;99955.00;5070777;28;19976;-68
2020/12/08 06:22:12;;;;;;;;;;;;;;;3.08;100.00;99946.13;5085302;28;19935;-69
2020/12/08 06:24:48;;;;;;;;;;;;;;;3.09;100.00;99950.53;5091662;28;19924;-67
2020/12/08 06:27:17;;;;;;;;;;;;;;;3.08;100.00;99960.38;5077399;28;20026;-68
2020/12/08 06:29:48;;;;;;;;;;;;;;;3.09;100.00;99967.47;5071411;28;20023;-69
2020/12/08 06:32:21;;;;;;;;;;;;;;;3.07;100.00;99966.69;5083984;28;19967;-70
2020/12/08 06:34:48;;;;;;;;;;;;;;;3.07;100.00;99972.06;5091581;28;20034;-68
2020/12/08 06:37:13;;;;;;;;;;;;;;;3.06;100.00;99974.84;5059958;28;20382;-68
2020/12/08 06:39:39;;;;;;;;;;;;;;;3.04;100.00;99991.03;5078287;28;19928;-69
2020/12/08 06:42:11;;;;;;;;;;;;;;;3.03;100.00;99993.81;5081669;28;20293;-64
2020/12/08 06:44:36;;;;;;;;;;;;;;;3.01;100.00;99986.72;5086683;28;20356;-66
2020/12/08 06:47:02;;;;;;;;;;;;;;;3.02;100.00;99987.59;5087718;28;19932;-66
2020/12/08 06:49:34;;;;;;;;;;;;;;;3.01;100.00;99980.50;5074107;28;20407;-66
2020/12/08 06:52:00;;;;;;;;;;;;;;;3.00;100.00;99984.97;5079341;28;19928;-66
2020/12/08 06:54:26;;;;;;;;;;;;;;;3.01;100.00;99985.84;5071106;28;20386;-66
2020/12/08 06:56:58;;;;;;;;;;;;;;;3.00;100.00;99986.81;5073977;28;20023;-66
2020/12/08 06:59:24;;;;;;;;;;;;;;;2.96;100.00;99985.28;5091360;28;20031;-66
2020/12/08 07:01:50;;;;;;;;;;;;;;;2.96;100.00;99986.13;5088137;28;19932;-66
2020/12/08 07:04:16;;;;;;;;;;;;;;;2.93;100.00;99990.84;5076670;28;20399;-66
2020/12/08 07:06:42;;;;;;;;;;;;;;;2.90;100.00;99994.56;5087807;28;19977;-66
2020/12/08 07:09:09;;;;;;;;;;;;;;;2.88;100.00;99993.78;5071010;28;19925;-67
2020/12/08 07:11:34;;;;;;;;;;;;;;;2.85;100.00;100000.19;5072947;28;20023;-66
2020/12/08 07:14:01;;;;;;;;;;;;;;;2.84;100.00;99994.91;5090739;28;19930;-66
2020/12/08 07:16:27;;;;;;;;;;;;;;;2.77;100.00;99993.59;5090347;28;19939;-66
2020/12/08 07:18:54;;;;;;;;;;;;;;;2.74;100.00;99997.31;5089583;28;19956;-66
2020/12/08 07:21:20;;;;;;;;;;;;;;;2.77;100.00;99998.94;5070830;28;20019;-67
2020/12/08 07:23:46;;;;;;;;;;;;;;;2.72;100.00;100006.41;5089966;28;19924;-66
2020/12/08 07:26:13;;;;;;;;;;;;;;;2.68;100.00;100005.69;5090932;28;19935;-66
2020/12/08 07:28:39;;;;;;;;;;;;;;;2.65;100.00;100011.25;5080539;28;20253;-66
2020/12/08 07:31:05;;;;;;;;;;;;;;;2.60;100.00;100005.31;5070475;28;19929;-66
2020/12/08 07:33:32;;;;;;;;;;;;;;;2.56;100.00;100001.09;5091094;28;19924;-66
2020/12/08 07:35:58;;;;;;;;;;;;;;;2.51;100.00;100004.03;5083418;28;19924;-67
2020/12/08 07:38:24;;;;;;;;;;;;;;;2.48;100.00;99998.84;5090926;28;20014;-66
2020/12/08 07:40:49;;;;;;;;;;;;;;;2.45;100.00;100005.25;5089552;28;19928;-66
2020/12/08 07:43:16;;;;;;;;;;;;;;;2.44;100.00;100013.38;5092639;28;19977;-68
2020/12/08 07:45:42;;;;;;;;;;;;;;;2.48;100.00;100025.66;5079341;28;20017;-69
2020/12/08 07:48:10;;;;;;;;;;;;;;;2.51;100.00;100029.03;5080128;28;20451;-68
2020/12/08 07:50:36;;;;;;;;;;;;;;;2.58;100.00;100028.63;5075475;28;19924;-67
2020/12/08 07:53:02;;;;;;;;;;;;;;;2.61;100.00;100025.78;5090715;28;20404;-68
2020/12/08 07:55:29;;;;;;;;;;;;;;;2.65;100.00;100030.03;5077158;28;19970;-66
2020/12/08 07:57:55;;;;;;;;;;;;;;;2.65;100.00;100028.19;5077358;28;20340;-66
2020/12/08 08:00:21;;;;;;;;;;;;;;;2.67;100.00;100017.38;5074338;28;19924;-66
2020/12/08 08:02:47;;;;;;;;;;;;;;;2.68;100.00;100025.31;5084146;28;19978;-66
2020/12/08 08:05:13;;;;;;;;;;;;;;;2.72;100.00;100030.50;5094395;28;19928;-66
2020/12/08 08:07:39;;;;;;;;;;;;;;;2.70;100.00;100033.28;5092455;28;21322;-66
2020/12/08 08:10:05;;;;;;;;;;;;;;;2.69;100.00;100036.91;5094132;28;19947;-66
2020/12/08 08:12:30;;;;;;;;;;;;;;;2.68;100.00;100032.50;5093686;28;19990;-66
2020/12/08 08:14:56;;;;;;;;;;;;;;;2.75;100.00;100041.03;5078950;28;20403;-66
2020/12/08 08:17:23;;;;;;;;;;;;;;;2.82;100.00;100040.59;5094077;28;19955;-67
2020/12/08 08:19:49;;;;;;;;;;;;;;;2.91;100.00;100035.63;5078787;28;20054;-66
2020/12/08 08:22:14;;;;;;;;;;;;;;;3.10;100.00;100036.25;5073655;28;19932;-67
2020/12/08 08:24:40;;;;;;;;;;;;;;;3.09;100.00;100036.34;5073883;28;19928;-67
2020/12/08 08:27:06;;;;;;;;;;;;;;;3.12;100.00;100030.78;5073328;28;19932;-67
2020/12/08 08:29:32;;;;;;;;;;;;;;;3.14;100.00;100035.09;5085701;28;20289;-66
2020/12/08 08:31:57;;;;;;;;;;;;;;;3.09;100.00;100037.19;5090608;28;19928;-66
2020/12/08 08:34:24;;;;;;;;;;;;;;;3.17;100.00;100040.25;5093811;28;19993;-66
2020/12/08 08:36:50;;;;;;;;;;;;;;;3.17;100.00;100037.59;5092727;28;19928;-66
2020/12/08 08:39:16;;;;;;;;;;;;;;;3.32;100.00;100041.13;5092117;28;19993;-66
2020/12/08 08:41:41;;;;;;;;;;;;;;;3.55;100.00;100043.34;5081951;28;20439;-66
2020/12/08 08:44:07;;;;;;;;;;;;;;;3.79;100.00;100047.16;5093314;28;19932;-66
2020/12/08 08:46:33;;;;;;;;;;;;;;;4.03;100.00;100043.84;5093394;28;20301;-66
2020/12/08 08:48:59;;;;;;;;;;;;;;;4.23;100.00;100036.34;5090872;28;19924;-67
2020/12/08 08:51:25;;;;;;;;;;;;;;;4.25;100.00;100042.44;5092048;28;19936;-68
2020/12/08 08:53:51;;;;;;;;;;;;;;;4.26;100.00;100033.44;5073939;28;19924;-67
2020/12/08 08:56:17;;;;;;;;;;;;;;;4.09;100.00;100042.59;5084625;28;19931;-69
2020/12/08 08:58:43;;;;;;;;;;;;;;;3.94;100.00;100045.34;5092009;28;19924;-68
2020/12/08 09:01:09;;;;;;;;;;;;;;;4.05;100.00;100046.44;5089745;28;19935;-68
2020/12/08 09:03:35;;;;;;;;;;;;;;;3.90;100.00;100037.56;5074858;28;19978;-68
2020/12/08 09:06:00;;;;;;;;;;;;;;;3.69;100.00;100037.97;5055796;28;20019;-68
2020/12/08 09:08:27;;;;;;;;;;;;;;;3.50;100.00;100047.19;5084212;28;19932;-68
2020/12/08 09:10:53;;;;;;;;;;;;;;;3.40;100.00;100048.72;5072713;28;20369;-68
2020/12/08 09:13:19;;;;;;;;;;;;;;;3.27;100.00;100042.38;5073977;28;19954;-68
2020/12/08 09:15:45;;;;;;;;;;;;;;;3.28;100.00;100041.44;5072946;28;20003;-68
2020/12/08 09:18:11;;;;;;;;;;;;;;;3.33;100.00;100039.34;5076026;28;19974;-68
2020/12/08 09:20:37;;;;;;;;;;;;;;;3.49;100.00;100034.72;5092476;28;19924;-69
2020/12/08 09:23:03;;;;;;;;;;;;;;;3.62;100.00;100026.78;5091803;28;19931;-68
2020/12/08 09:25:29;;;;;;;;;;;;;;;3.75;100.00;100028.66;5092759;28;19931;-67
2020/12/08 09:27:55;;;;;;;;;;;;;;;3.92;100.00;100023.06;5089532;28;20019;-68
2020/12/08 09:30:21;;;;;;;;;;;;;;;4.05;100.00;100023.16;5073263;28;19925;-68
2020/12/08 09:32:48;;;;;;;;;;;;;;;4.29;100.00;100025.16;5076666;28;19924;-67
2020/12/08 09:35:14;;;;;;;;;;;;;;;4.37;100.00;100025.53;5092364;28;19970;-67
2020/12/08 09:37:40;;;;;;;;;;;;;;;4.45;100.00;100028.56;5089586;28;19934;-67
2020/12/08 09:40:06;;;;;;;;;;;;;;;4.48;100.00;100025.66;5091959;28;19928;-67
2020/12/08 09:42:33;;;;;;;;;;;;;;;4.40;100.00;100027.16;5079661;28;19929;-67
2020/12/08 09:44:59;;;;;;;;;;;;;;;4.21;100.00;100035.56;5082775;28;19966;-67
2020/12/08 09:47:24;;;;;;;;;;;;;;;4.29;100.00;100034.09;5087578;28;19928;-67
2020/12/08 09:49:50;;;;;;;;;;;;;;;4.44;100.00;100034.91;5091474;28;19928;-67
2020/12/08 09:52:16;;;;;;;;;;;;;;;4.63;100.00;100047.13;5092005;28;19924;-67
2020/12/08 09:54:42;;;;;;;;;;;;;;;4.77;100.00;100047.06;5065649;28;19925;-66
2020/12/08 09:57:08;;;;;;;;;;;;;;;4.99;100.00;100042.88;5091283;28;19924;-66
2020/12/08 09:59:35;;;;;;;;;;;;;;;5.20;100.00;100038.72;5089545;28;19946;-66
2020/12/08 10:02:02;;;;;;;;;;;;;;;5.49;100.00;100037.63;5077801;28;19924;-66
2020/12/08 10:04:28;;;;;;;;;;;;;;;5.78;100.00;100035.53;5090986;28;20023;-66
2020/12/08 10:06:53;;;;;;;;;;;;;;;5.67;100.00;100030.94;5091335;28;20347;-67
2020/12/08 10:09:19;;;;;;;;;;;;;;;5.71;100.00;100028.88;5091281;28;19931;-67
2020/12/08 10:11:45;;;;;;;;;;;;;;;5.78;100.00;100027.44;5091891;28;19935;-67
2020/12/08 10:14:11;;;;;;;;;;;;;;;5.75;100.00;100026.84;5088722;28;19933;-66
2020/12/08 10:16:37;;;;;;;;;;;;;;;5.67;100.00;100030.94;5054387;28;19924;-67
2020/12/08 10:19:03;;;;;;;;;;;;;;;5.33;100.00;100032.47;5091486;28;20019;-67
2020/12/08 10:21:29;;;;;;;;;;;;;;;5.05;100.00;100034.41;5091514;28;19969;-67
2020/12/08 10:23:55;;;;;;;;;;;;;;;4.83;100.00;100035.00;5071454;28;20370;-67
2020/12/08 10:26:21;;;;;;;;;;;;;;;4.75;100.00;100035.53;5080794;28;19924;-67
2020/12/08 10:28:47;;;;;;;;;;;;;;;4.73;100.00;100040.16;5090868;28;19924;-67
2020/12/08 10:31:14;;;;;;;;;;;;;;;4.78;100.00;100042.53;5091361;28;20063;-67
2020/12/08 10:33:42;;;;;;;;;;;;;;;4.98;100.00;100041.16;5077523;28;20433;-65
2020/12/08 10:36:08;;;;;;;;;;;;;;;4.97;100.00;100025.97;5090951;28;19946;-68
2020/12/08 10:38:34;;;;;;;;;;;;;;;5.00;100.00;100020.41;5076126;28;20445;-67
2020/12/08 10:41:00;;;;;;;;;;;;;;;5.09;100.00;100018.91;5083440;28;20370;-67
2020/12/08 10:43:25;;;;;;;;;;;;;;;5.16;100.00;100025.59;5062254;28;19978;-67
2020/12/08 10:45:51;;;;;;;;;;;;;;;4.88;100.00;100022.13;5070988;28;19931;-67
2020/12/08 10:48:17;;;;;;;;;;;;;;;4.85;100.00;100023.19;5078408;28;19924;-67
2020/12/08 10:50:45;;;;;;;;;;;;;;;4.98;100.00;100022.34;5089320;28;20366;-67
2020/12/08 10:53:12;;;;;;;;;;;;;;;5.13;100.00;100032.03;5091106;28;20451;-67
2020/12/08 10:55:38;;;;;;;;;;;;;;;5.20;100.00;100030.63;5090232;28;19924;-67
2020/12/08 10:58:03;;;;;;;;;;;;;;;5.23;100.00;100028.72;5090930;28;19928;-67
2020/12/08 11:00:30;;;;;;;;;;;;;;;5.26;100.00;100028.50;5087243;28;20348;-66
2020/12/08 11:02:55;;;;;;;;;;;;;;;5.26;100.00;100029.34;5084746;28;19993;-66
2020/12/08 11:05:21;;;;;;;;;;;;;;;5.31;100.00;100021.81;5089771;28;20381;-66
2020/12/08 11:07:48;;;;;;;;;;;;;;;5.36;100.00;100024.19;5090909;28;19931;-66
2020/12/08 11:10:14;;;;;;;;;;;;;;;5.39;100.00;100018.56;5077520;28;19963;-66
2020/12/08 11:12:40;;;;;;;;;;;;;;;5.35;100.00;100022.47;5084397;28;19938;-67
2020/12/08 11:15:06;;;;;;;;;;;;;;;5.38;100.00;100022.22;5070945;28;20411;-68
2020/12/08 11:17:35;;;;;;;;;;;;;;;5.38;100.00;100019.53;5086156;28;19924;-67
2020/12/08 11:20:01;;;;;;;;;;;;;;;5.28;100.00;100026.56;5094840;28;19924;-68
2020/12/08 11:22:27;;;;;;;;;;;;;;;5.19;100.00;100026.22;5094053;28;19932;-67
2020/12/08 11:24:53;;;;;;;;;;;;;;;5.22;100.00;100026.97;5095039;28;19943;-68
2020/12/08 11:27:19;;;;;;;;;;;;;;;5.28;100.00;100024.72;5093013;28;20019;-68
2020/12/08 11:29:45;;;;;;;;;;;;;;;5.32;100.00;100026.22;5088134;28;19987;-68
2020/12/08 11:32:11;;;;;;;;;;;;;;;5.34;100.00;100027.00;5092964;28;20031;-67
2020/12/08 11:34:37;;;;;;;;;;;;;;;5.43;100.00;100024.63;5095101;28;20038;-67
2020/12/08 11:37:03;;;;;;;;;;;;;;;5.56;100.00;100020.06;5093680;28;19924;-67
2020/12/08 11:39:29;;;;;;;;;;;;;;;5.52;100.00;100021.28;5094813;28;20340;-67
2020/12/08 11:41:55;;;;;;;;;;;;;;;5.54;100.00;100032.78;5081227;28;19986;-67
2020/12/08 11:44:21;;;;;;;;;;;;;;;5.53;100.00;100039.13;5076519;28;20422;-67
2020/12/08 11:46:51;;;;;;;;;;;;;;;5.49;100.00;100045.69;5075311;28;19936;-68
2020/12/08 11:49:17;;;;;;;;;;;;;;;5.44;100.00;100048.72;5085509;28;19928;-67
2020/12/08 11:51:43;;;;;;;;;;;;;;;5.37;100.00;100052.81;5077285;28;20039;-67
2020/12/08 11:54:08;;;;;;;;;;;;;;;5.39;100.00;100058.09;5076146;28;19928;-66
2020/12/08 11:56:34;;;;;;;;;;;;;;;5.36;100.00;100048.41;5093124;28;19960;-67
2020/12/08 11:59:01;;;;;;;;;;;;;;;5.39;100.00;100050.88;5094270;28;19951;-68
2020/12/08 12:01:27;;;;;;;;;;;;;;;5.38;100.00;100049.16;5094207;28;19928;-66
2020/12/08 12:03:52;;;;;;;;;;;;;;;5.36;100.00;100051.94;5093754;28;19993;-67
2020/12/08 12:06:18;;;;;;;;;;;;;;;5.36;100.00;100057.34;5094459;28;19924;-67
2020/12/08 12:08:44;;;;;;;;;;;;;;;5.44;100.00;100056.81;5094329;28;19924;-67
2020/12/08 12:11:10;;;;;;;;;;;;;;;5.44;100.00;100059.50;5094008;28;19924;-67
2020/12/08 12:13:36;;;;;;;;;;;;;;;5.38;100.00;100059.91;5094509;28;19928;-67
2020/12/08 12:16:02;;;;;;;;;;;;;;;5.40;100.00;100058.00;5088408;28;19985;-66
2020/12/08 12:18:28;;;;;;;;;;;;;;;5.48;100.00;100061.00;5088028;28;20014;-65
2020/12/08 12:20:54;;;;;;;;;;;;;;;5.37;100.00;100060.88;5093894;28;19931;-65
2020/12/08 12:23:20;;;;;;;;;;;;;;;5.45;100.00;100066.59;5091626;28;19932;-65
2020/12/08 12:25:45;;;;;;;;;;;;;;;5.48;100.00;100071.78;5094297;28;19931;-65
2020/12/08 12:28:11;;;;;;;;;;;;;;;5.60;100.00;100066.47;5087388;28;19924;-65
2020/12/08 12:30:37;;;;;;;;;;;;;;;5.61;100.00;100065.50;5094088;28;19924;-64
2020/12/08 12:33:04;;;;;;;;;;;;;;;5.60;100.00;100058.38;5093161;28;20471;-65
2020/12/08 12:35:30;;;;;;;;;;;;;;;5.51;100.00;100057.22;5081963;28;19971;-65
2020/12/08 12:37:56;;;;;;;;;;;;;;;5.44;100.00;100053.22;5076322;28;19932;-65
2020/12/08 12:40:21;;;;;;;;;;;;;;;5.33;100.00;100052.19;5085476;28;19925;-65